createdAt,value
2023-04-12T00:00:11.943Z,1.23
2023-04-12T00:02:42.376Z,1.40
2023-04-12T00:05:12.124Z,2.17
2023-04-12T00:07:42.643Z,1.10
2023-04-12T00:10:11.538Z,1.23
2023-04-12T00:12:41.035Z,1.30
2023-04-12T00:15:12.042Z,1.52
2023-04-12T00:17:41.151Z,1.40
2023-04-12T00:20:12.246Z,1.48
2023-04-12T00:22:41.455Z,1.23
2023-04-12T00:25:10.994Z,1.00
2023-04-12T00:27:39.613Z,1.30
2023-04-12T00:30:10.684Z,1.15
2023-04-12T00:32:39.268Z,1.33
2023-04-12T00:35:08.833Z,1.27
2023-04-12T00:37:38.536Z,1.20
2023-04-12T00:40:09.959Z,1.10
2023-04-12T00:42:39.076Z,1.48
2023-04-12T00:45:10.495Z,1.60
2023-04-12T00:47:40.499Z,1.27
2023-04-12T00:50:10.869Z,1.20
2023-04-12T00:52:41.513Z,1.27
2023-04-12T00:55:11.048Z,1.05
2023-04-12T00:57:41.480Z,1.25
2023-04-12T01:00:13.526Z,1.02
2023-04-12T01:02:47.008Z,1.10
2023-04-12T01:05:22.263Z,1.20
2023-04-12T01:08:06.126Z,1.00
2023-04-12T01:10:44.809Z,1.20
2023-04-12T01:13:25.635Z,1.10
2023-04-12T01:16:03.028Z,1.15
2023-04-12T01:18:40.520Z,1.40
2023-04-12T01:21:17.316Z,1.10
2023-04-12T01:24:02.669Z,1.08
2023-04-12T01:26:43.140Z,0.95
2023-04-12T01:29:15.501Z,1.20
2023-04-12T01:31:54.118Z,1.10
2023-04-12T01:34:27.388Z,1.10
2023-04-12T01:36:58.351Z,1.17
2023-04-12T01:39:27.477Z,1.38
2023-04-12T01:41:56.090Z,1.40
2023-04-12T01:44:26.492Z,0.98
2023-04-12T01:46:55.285Z,0.90
2023-04-12T01:49:29.588Z,1.20
2023-04-12T01:52:04.771Z,1.00
2023-04-12T01:54:39.823Z,1.25
2023-04-12T01:57:09.480Z,1.00
2023-04-12T01:59:42.538Z,1.00
2023-04-12T02:02:13.012Z,1.20
2023-04-12T02:04:43.911Z,1.00
2023-04-12T02:07:13.778Z,1.20
2023-04-12T02:09:42.306Z,0.93
2023-04-12T02:12:11.094Z,1.40
2023-04-12T02:14:41.084Z,1.38
2023-04-12T02:17:09.775Z,1.15
2023-04-12T02:19:39.166Z,1.13
2023-04-12T02:22:08.514Z,1.17
2023-04-12T02:24:37.236Z,1.30
2023-04-12T02:27:06.046Z,1.30
2023-04-12T02:29:35.350Z,1.20
2023-04-12T02:32:06.084Z,1.00
2023-04-12T02:34:36.604Z,0.98
2023-04-12T02:37:27.486Z,1.13
2023-04-12T02:39:56.986Z,1.17
2023-04-12T02:42:26.852Z,1.13
2023-04-12T02:44:55.645Z,1.20
2023-04-12T02:47:29.202Z,1.35
2023-04-12T02:50:00.350Z,1.23
2023-04-12T02:52:29.982Z,1.42
2023-04-12T02:55:05.167Z,1.52
2023-04-12T02:57:33.715Z,1.13
2023-04-12T03:00:07.503Z,1.40
2023-04-12T03:02:44.038Z,0.98
2023-04-12T03:05:20.262Z,1.20
2023-04-12T03:07:50.055Z,1.27
2023-04-12T03:10:22.698Z,1.52
2023-04-12T03:12:58.593Z,1.15
2023-04-12T03:15:34.931Z,1.30
2023-04-12T03:18:05.644Z,1.55
2023-04-12T03:20:45.970Z,1.25
2023-04-12T03:23:15.710Z,1.38
2023-04-12T03:25:51.230Z,1.35
2023-04-12T03:28:32.721Z,1.10
2023-04-12T03:31:02.992Z,1.45
2023-04-12T03:33:59.544Z,1.50
2023-04-12T03:36:30.443Z,1.42
2023-04-12T03:39:07.804Z,1.27
2023-04-12T03:41:38.934Z,2.08
2023-04-12T03:44:07.643Z,1.63
2023-04-12T03:46:37.751Z,1.75
2023-04-12T03:49:12.184Z,1.80
2023-04-12T03:51:42.726Z,1.50
2023-04-12T03:54:12.877Z,1.75
2023-04-12T03:56:52.663Z,1.60
2023-04-12T03:59:27.413Z,2.10
2023-04-12T04:01:56.693Z,1.77
2023-04-12T04:04:29.435Z,1.85
2023-04-12T04:07:02.570Z,2.15
2023-04-12T04:09:35.762Z,2.10
2023-04-12T04:12:04.750Z,1.75
2023-04-12T04:14:36.847Z,1.67
2023-04-12T04:17:07.421Z,1.92
2023-04-12T04:19:38.117Z,2.25
2023-04-12T04:22:07.288Z,1.95
2023-04-12T04:24:38.938Z,1.60
2023-04-12T04:27:08.846Z,1.70
2023-04-12T04:29:44.434Z,2.15
2023-04-12T04:32:15.856Z,1.67
2023-04-12T04:34:47.699Z,1.75
2023-04-12T04:37:19.777Z,1.90
2023-04-12T04:39:49.959Z,2.03
2023-04-12T04:42:19.000Z,2.28
2023-04-12T04:45:04.039Z,1.90
2023-04-12T04:47:38.816Z,2.00
2023-04-12T04:50:09.649Z,2.08
2023-04-12T04:52:39.305Z,2.13
2023-04-12T04:55:13.000Z,2.00
2023-04-12T04:57:46.208Z,1.88
2023-04-12T05:00:16.572Z,2.03
2023-04-12T05:02:49.361Z,2.20
2023-04-12T05:05:26.347Z,2.08
2023-04-12T05:08:02.423Z,2.22
2023-04-12T05:10:32.941Z,2.00
2023-04-12T05:13:04.160Z,1.70
2023-04-12T05:15:32.809Z,2.10
2023-04-12T05:18:02.120Z,2.10
2023-04-12T05:20:33.379Z,2.90
2023-04-12T05:23:02.004Z,2.42
2023-04-12T05:25:30.830Z,2.53
2023-04-12T05:28:06.722Z,2.70
2023-04-12T05:30:35.341Z,2.42
2023-04-12T05:33:05.673Z,2.40
2023-04-12T05:35:37.275Z,1.85
2023-04-12T05:38:06.312Z,1.88
2023-04-12T05:40:36.474Z,1.65
2023-04-12T05:43:06.478Z,2.05
2023-04-12T05:45:35.070Z,1.92
2023-04-12T05:48:03.998Z,2.00
2023-04-12T05:50:32.836Z,2.22
2023-04-12T05:53:03.635Z,2.45
2023-04-12T05:55:37.304Z,1.77
2023-04-12T05:58:08.000Z,1.73
2023-04-12T06:00:37.190Z,1.65
2023-04-12T06:03:05.924Z,2.30
2023-04-12T06:05:35.611Z,2.30
2023-04-12T06:08:06.348Z,2.10
2023-04-12T06:10:35.466Z,2.03
2023-04-12T06:13:05.015Z,1.65
2023-04-12T06:15:34.837Z,2.00
2023-04-12T06:18:03.506Z,1.85
2023-04-12T06:20:32.152Z,2.20
2023-04-12T06:23:00.831Z,1.58
2023-04-12T06:25:30.892Z,1.40
2023-04-12T06:28:00.563Z,1.77
2023-04-12T06:30:29.294Z,2.00
2023-04-12T06:32:58.694Z,1.75
2023-04-12T06:35:27.431Z,1.70
2023-04-12T06:37:56.114Z,2.00
2023-04-12T06:40:24.955Z,2.15
2023-04-12T06:42:54.992Z,1.73
2023-04-12T06:45:24.566Z,1.70
2023-04-12T06:47:55.899Z,1.63
2023-04-12T06:50:25.978Z,1.63
2023-04-12T06:52:54.516Z,1.63
2023-04-12T06:55:23.068Z,2.00
2023-04-12T06:57:52.212Z,1.80
2023-04-12T07:00:22.933Z,1.40
2023-04-12T07:02:51.958Z,1.63
2023-04-12T07:05:20.978Z,1.48
2023-04-12T07:07:49.545Z,1.33
2023-04-12T07:10:18.533Z,1.40
2023-04-12T07:12:47.181Z,1.48
2023-04-12T07:15:16.070Z,1.85
2023-04-12T07:17:46.038Z,1.52
2023-04-12T07:20:14.678Z,1.48
2023-04-12T07:22:43.425Z,1.33
2023-04-12T07:25:12.098Z,1.27
2023-04-12T07:27:40.758Z,1.17
2023-04-12T07:30:10.201Z,1.40
2023-04-12T07:32:38.789Z,1.10
2023-04-12T07:35:10.015Z,1.30
2023-04-12T07:37:38.973Z,1.20
2023-04-12T07:40:08.679Z,1.40
2023-04-12T07:42:37.365Z,1.05
2023-04-12T07:45:06.788Z,1.30
2023-04-12T07:47:35.392Z,1.13
2023-04-12T07:50:04.545Z,1.40
2023-04-12T07:52:34.881Z,1.05
2023-04-12T07:55:03.508Z,1.08
2023-04-12T07:57:34.056Z,1.05
2023-04-12T08:00:02.897Z,1.25
2023-04-12T08:02:41.731Z,1.20
2023-04-12T08:05:10.896Z,0.95
2023-04-12T08:07:40.950Z,0.90
2023-04-12T08:10:10.520Z,1.00
2023-04-12T08:12:39.108Z,1.20
2023-04-12T08:15:09.251Z,0.77
2023-04-12T08:17:37.913Z,1.05
2023-04-12T08:20:07.638Z,1.15
2023-04-12T08:22:36.330Z,1.00
2023-04-12T08:25:07.483Z,0.80
2023-04-12T08:27:36.126Z,1.23
2023-04-12T08:30:05.152Z,0.77
2023-04-12T08:32:33.777Z,0.85
2023-04-12T08:35:02.558Z,1.15
2023-04-12T08:37:31.677Z,1.00
2023-04-12T08:40:01.702Z,1.20
2023-04-12T08:42:33.280Z,1.00
2023-04-12T08:45:05.983Z,0.88
2023-04-12T08:47:35.567Z,1.20
2023-04-12T08:50:05.863Z,1.00
2023-04-12T08:52:35.773Z,1.00
2023-04-12T08:55:05.065Z,0.90
2023-04-12T08:57:35.852Z,1.20
2023-04-12T09:00:05.419Z,1.00
2023-04-12T09:02:36.592Z,1.10
2023-04-12T09:05:06.357Z,1.10
2023-04-12T09:07:35.244Z,0.88
2023-04-12T09:10:04.754Z,1.10
2023-04-12T09:12:34.982Z,1.05
2023-04-12T09:15:09.539Z,1.02
2023-04-12T09:17:39.019Z,1.05
2023-04-12T09:20:26.166Z,0.73
2023-04-12T09:22:55.773Z,0.80
2023-04-12T09:25:38.525Z,0.90
2023-04-12T09:28:20.604Z,0.93
2023-04-12T09:30:51.786Z,0.90
2023-04-12T09:33:21.676Z,0.77
2023-04-12T09:35:51.117Z,1.02
2023-04-12T09:38:20.010Z,1.05
2023-04-12T09:40:50.290Z,0.90
2023-04-12T09:43:20.822Z,1.20
2023-04-12T09:45:49.706Z,0.93
2023-04-12T09:48:22.155Z,1.15
2023-04-12T09:51:00.246Z,0.85
2023-04-12T09:53:29.406Z,0.63
2023-04-12T09:56:00.221Z,0.70
2023-04-12T09:58:32.672Z,0.80
2023-04-12T10:01:03.079Z,0.90
2023-04-12T10:03:32.012Z,0.90
2023-04-12T10:06:00.771Z,0.98
2023-04-12T10:08:29.708Z,0.63
2023-04-12T10:10:58.919Z,0.80
2023-04-12T10:13:28.831Z,0.88
2023-04-12T10:15:59.600Z,0.90
2023-04-12T10:18:28.770Z,0.57
2023-04-12T10:20:59.361Z,1.00
2023-04-12T10:23:28.194Z,0.70
2023-04-12T10:25:57.149Z,0.85
2023-04-12T10:28:26.775Z,0.80
2023-04-12T10:30:59.673Z,0.70
2023-04-12T10:33:30.938Z,0.82
2023-04-12T10:36:10.328Z,0.90
2023-04-12T10:38:47.406Z,0.70
2023-04-12T10:41:20.630Z,0.80
2023-04-12T10:43:50.215Z,0.60
2023-04-12T10:46:54.408Z,0.57
2023-04-12T10:49:23.942Z,0.75
2023-04-12T10:52:17.539Z,0.50
2023-04-12T10:54:46.891Z,0.68
2023-04-12T10:57:43.413Z,0.60
2023-04-12T11:00:13.051Z,0.57
2023-04-12T11:03:12.770Z,0.50
2023-04-12T11:06:04.370Z,0.52
2023-04-12T11:08:58.526Z,0.52
2023-04-12T11:11:28.050Z,0.60
2023-04-12T11:13:59.387Z,0.35
2023-04-12T11:16:27.932Z,0.60
2023-04-12T11:18:58.297Z,0.75
2023-04-12T11:21:27.691Z,0.80
2023-04-12T11:23:56.363Z,0.90
2023-04-12T11:26:25.394Z,1.00
2023-04-12T11:28:55.929Z,1.00
2023-04-12T11:31:24.943Z,1.15
2023-04-12T11:33:53.572Z,1.10
2023-04-12T11:36:23.571Z,1.40
2023-04-12T11:38:53.099Z,1.30
2023-04-12T11:41:21.715Z,1.42
2023-04-12T11:43:50.566Z,1.35
2023-04-12T11:46:20.218Z,1.58
2023-04-12T11:48:48.919Z,1.20
2023-04-12T11:51:21.242Z,1.30
2023-04-12T11:53:55.920Z,1.60
2023-04-12T11:56:25.164Z,1.60
2023-04-12T11:58:53.846Z,1.23
2023-04-12T12:01:23.908Z,1.25
2023-04-12T12:03:52.935Z,1.25
2023-04-12T12:06:22.700Z,1.75
2023-04-12T12:08:52.209Z,1.15
2023-04-12T12:11:23.429Z,1.55
2023-04-12T12:13:53.198Z,1.45
2023-04-12T12:16:27.127Z,1.42
2023-04-12T12:18:57.000Z,1.63
2023-04-12T12:21:27.468Z,1.50
2023-04-12T12:23:58.745Z,1.48
2023-04-12T12:26:30.419Z,1.48
2023-04-12T12:29:00.880Z,1.20
2023-04-12T12:31:29.925Z,1.67
2023-04-12T12:34:01.189Z,1.80
2023-04-12T12:36:33.867Z,1.60
2023-04-12T12:39:10.559Z,1.38
2023-04-12T12:41:41.513Z,1.30
2023-04-12T12:44:11.192Z,1.50
2023-04-12T12:46:53.597Z,1.17
2023-04-12T12:49:25.783Z,1.33
2023-04-12T12:51:54.451Z,1.30
2023-04-12T12:54:39.507Z,1.40
2023-04-12T12:57:10.882Z,1.60
2023-04-12T12:59:39.483Z,1.10
2023-04-12T13:02:08.756Z,1.08
2023-04-12T13:04:37.860Z,1.10
2023-04-12T13:07:06.768Z,1.10
2023-04-12T13:09:35.449Z,1.10
2023-04-12T13:12:04.388Z,1.23
2023-04-12T13:14:34.420Z,1.10
2023-04-12T13:17:02.946Z,1.15
2023-04-12T13:19:31.562Z,0.90
2023-04-12T13:22:00.244Z,1.33
2023-04-12T13:24:28.748Z,1.00
2023-04-12T13:26:58.169Z,1.48
2023-04-12T13:29:26.837Z,1.25
2023-04-12T13:31:56.783Z,1.20
2023-04-12T13:34:25.896Z,0.90
2023-04-12T13:36:54.683Z,0.93
2023-04-12T13:39:23.296Z,1.08
2023-04-12T13:41:52.192Z,1.30
2023-04-12T13:44:20.837Z,1.33
2023-04-12T13:46:49.530Z,1.50
2023-04-12T13:49:19.443Z,1.08
2023-04-12T13:51:48.076Z,1.08
2023-04-12T13:54:17.463Z,0.70
2023-04-12T13:56:46.104Z,0.90
2023-04-12T13:59:14.785Z,1.15
2023-04-12T14:01:43.441Z,0.93
2023-04-12T14:04:12.151Z,0.75
2023-04-12T14:06:43.050Z,0.68
2023-04-12T14:09:11.669Z,1.00
2023-04-12T14:11:47.275Z,0.90
2023-04-12T14:14:16.959Z,0.80
2023-04-12T14:16:45.839Z,0.80
2023-04-12T14:19:14.728Z,0.93
2023-04-12T14:21:44.729Z,0.70
2023-04-12T14:24:13.598Z,0.90
2023-04-12T14:26:42.209Z,1.17
2023-04-12T14:29:11.058Z,1.08
2023-04-12T14:31:40.136Z,1.10
2023-04-12T14:34:09.279Z,0.88
2023-04-12T14:36:38.403Z,0.80
2023-04-12T14:39:10.834Z,0.93
2023-04-12T14:41:41.703Z,0.90
2023-04-12T14:44:10.314Z,0.70
2023-04-12T14:46:38.927Z,0.95
2023-04-12T14:49:07.852Z,0.93
2023-04-12T14:51:36.489Z,0.77
2023-04-12T14:54:05.187Z,0.95
2023-04-12T14:56:39.474Z,1.00
2023-04-12T14:59:09.693Z,1.20
2023-04-12T15:01:39.359Z,0.90
2023-04-12T15:04:08.284Z,1.13
2023-04-12T15:06:42.363Z,1.15
2023-04-12T15:09:11.500Z,1.33
2023-04-12T15:11:47.042Z,1.17
2023-04-12T15:14:19.931Z,1.00
2023-04-12T15:16:50.417Z,1.40
2023-04-12T15:19:22.829Z,1.83
2023-04-12T15:21:52.425Z,1.58
2023-04-12T15:24:22.240Z,0.93
2023-04-12T15:26:53.305Z,1.48
2023-04-12T15:29:24.256Z,1.80
2023-04-12T15:31:56.006Z,1.15
2023-04-12T15:34:25.243Z,1.67
2023-04-12T15:36:53.908Z,1.75
2023-04-12T15:39:22.699Z,1.35
2023-04-12T15:41:52.641Z,1.40
2023-04-12T15:44:23.015Z,1.40
2023-04-12T15:47:03.222Z,1.35
2023-04-12T15:49:36.562Z,1.48
2023-04-12T15:52:05.576Z,1.20
2023-04-12T15:54:35.108Z,1.42
2023-04-12T15:57:09.598Z,1.60
2023-04-12T15:59:38.686Z,1.20
2023-04-12T16:02:09.770Z,1.00
2023-04-12T16:04:39.208Z,1.20
2023-04-12T16:07:09.109Z,1.38
2023-04-12T16:09:39.714Z,1.20
2023-04-12T16:12:09.700Z,1.38
2023-04-12T16:14:39.359Z,0.90
2023-04-12T16:17:08.518Z,1.00
2023-04-12T16:19:37.625Z,0.80
2023-04-12T16:22:06.390Z,1.15
2023-04-12T16:24:35.228Z,1.00
2023-04-12T16:27:03.827Z,0.85
2023-04-12T16:29:33.968Z,0.47
2023-04-12T16:32:02.717Z,0.50
2023-04-12T16:34:31.508Z,0.30
2023-04-12T16:37:00.156Z,0.40
2023-04-12T16:39:29.181Z,0.40
2023-04-12T16:41:57.795Z,0.60
2023-04-12T16:44:26.475Z,0.63
2023-04-12T16:46:56.492Z,0.70
2023-04-12T16:49:25.162Z,0.75
2023-04-12T16:51:54.019Z,0.70
2023-04-12T16:54:22.765Z,0.90
2023-04-12T16:56:51.347Z,0.90
2023-04-12T16:59:19.948Z,0.88
2023-04-12T17:01:48.812Z,0.80
2023-04-12T17:04:19.040Z,0.80
2023-04-12T17:06:47.634Z,1.08
2023-04-12T17:09:16.437Z,1.17
2023-04-12T17:11:45.045Z,0.88
2023-04-12T17:14:13.764Z,1.13
2023-04-12T17:16:42.499Z,1.23
2023-04-12T17:19:11.173Z,0.85
2023-04-12T17:21:44.700Z,0.93
2023-04-12T17:24:13.538Z,0.90
2023-04-12T17:26:42.506Z,1.23
2023-04-12T17:29:11.335Z,1.15
2023-04-12T17:31:41.061Z,1.00
2023-04-12T17:34:09.708Z,1.00
2023-04-12T17:36:38.306Z,1.00
2023-04-12T17:39:08.248Z,1.00
2023-04-12T17:41:37.059Z,1.15
2023-04-12T17:44:06.744Z,1.15
2023-04-12T17:46:36.650Z,1.05
2023-04-12T17:49:06.691Z,1.25
2023-04-12T17:51:35.339Z,1.58
2023-04-12T17:54:04.664Z,1.45
2023-04-12T17:56:34.611Z,1.45
2023-04-12T17:59:05.572Z,1.02
2023-04-12T18:01:36.684Z,1.20
2023-04-12T18:04:07.106Z,1.10
2023-04-12T18:06:36.234Z,1.02
2023-04-12T18:09:05.008Z,0.85
2023-04-12T18:11:38.631Z,1.20
2023-04-12T18:14:07.531Z,0.93
2023-04-12T18:16:36.269Z,1.05
2023-04-12T18:19:06.510Z,0.90
2023-04-12T18:21:36.074Z,1.05
2023-04-12T18:24:04.794Z,1.20
2023-04-12T18:26:34.640Z,0.90
2023-04-12T18:29:03.196Z,0.90
2023-04-12T18:31:31.936Z,1.05
2023-04-12T18:34:00.534Z,1.00
2023-04-12T18:36:29.210Z,0.95
2023-04-12T18:38:57.772Z,1.23
2023-04-12T18:41:26.357Z,1.30
2023-04-12T18:43:56.881Z,1.63
2023-04-12T18:46:26.723Z,2.05
2023-04-12T18:48:55.680Z,1.80
2023-04-12T18:51:24.639Z,1.52
2023-04-12T18:53:53.224Z,1.20
2023-04-12T18:56:24.471Z,1.20
2023-04-12T18:58:56.019Z,1.02
2023-04-12T19:01:26.589Z,1.08
2023-04-12T19:03:55.197Z,1.08
2023-04-12T19:06:23.856Z,1.00
2023-04-12T19:08:52.462Z,1.15
2023-04-12T19:11:21.283Z,1.17
2023-04-12T19:13:50.091Z,1.30
2023-04-12T19:16:19.129Z,1.40
2023-04-12T19:18:49.275Z,1.52
2023-04-12T19:21:17.853Z,1.25
2023-04-12T19:23:46.436Z,1.40
2023-04-12T19:26:14.951Z,1.10
2023-04-12T19:28:45.761Z,0.93
2023-04-12T19:31:15.047Z,1.40
2023-04-12T19:33:43.608Z,1.40
2023-04-12T19:36:13.538Z,1.00
2023-04-12T19:38:44.049Z,1.15
2023-04-12T19:41:12.659Z,1.35
2023-04-12T19:43:41.223Z,1.00
2023-04-12T19:46:09.853Z,1.25
2023-04-12T19:48:38.831Z,1.60
2023-04-12T19:51:07.605Z,1.20
2023-04-12T19:53:37.596Z,1.42
2023-04-12T19:56:06.658Z,1.45
2023-04-12T19:58:35.582Z,1.20
2023-04-12T20:01:04.275Z,1.05
2023-04-12T20:03:32.980Z,1.20
2023-04-12T20:06:04.399Z,1.20
2023-04-12T20:08:33.194Z,0.98
2023-04-12T20:11:03.344Z,0.88
2023-04-12T20:13:32.282Z,1.10
2023-04-12T20:16:01.854Z,1.20
2023-04-12T20:18:30.507Z,1.27
2023-04-12T20:20:59.477Z,1.38
2023-04-12T20:23:28.042Z,1.15
2023-04-12T20:25:57.440Z,1.35
2023-04-12T20:28:27.306Z,1.20
2023-04-12T20:30:56.025Z,1.00
2023-04-12T20:33:24.650Z,1.27
2023-04-12T20:35:54.115Z,0.88
2023-04-12T20:38:23.199Z,0.85
2023-04-12T20:40:52.313Z,1.00
2023-04-12T20:43:21.150Z,1.08
2023-04-12T20:45:51.445Z,1.27
2023-04-12T20:48:20.455Z,1.20
2023-04-12T20:50:50.331Z,1.20
2023-04-12T20:53:18.909Z,1.27
2023-04-12T20:55:47.680Z,1.30
2023-04-12T20:58:17.071Z,1.20
2023-04-12T21:00:46.814Z,1.40
2023-04-12T21:06:04.073Z,1.30
2023-04-12T21:08:33.674Z,1.10
2023-04-12T21:11:02.880Z,1.05
2023-04-12T21:13:31.940Z,1.13
2023-04-12T21:16:00.691Z,1.00
2023-04-12T21:18:32.208Z,0.70
2023-04-12T21:21:01.007Z,0.90
2023-04-12T21:23:30.132Z,0.95
2023-04-12T21:25:59.053Z,0.70
2023-04-12T21:28:29.575Z,0.60
2023-04-12T21:30:58.350Z,0.50
2023-04-12T21:33:26.954Z,0.50
2023-04-12T21:35:57.431Z,0.60
2023-04-12T21:38:26.518Z,0.45
2023-04-12T21:40:57.285Z,0.40
2023-04-12T21:43:26.009Z,0.35
2023-04-12T21:45:54.694Z,0.60
2023-04-12T21:48:23.378Z,0.50
2023-04-12T21:50:52.283Z,0.52
2023-04-12T21:53:22.122Z,0.50
2023-04-12T21:55:50.688Z,0.50
2023-04-12T21:58:19.202Z,0.50
2023-04-12T22:00:48.222Z,0.60
2023-04-12T22:03:17.052Z,0.52
2023-04-12T22:05:51.066Z,0.40
2023-04-12T22:08:27.553Z,0.70
2023-04-12T22:10:56.466Z,0.60
2023-04-12T22:13:25.390Z,0.60
2023-04-12T22:15:54.416Z,0.75
2023-04-12T22:18:23.344Z,0.40
2023-04-12T22:20:52.470Z,0.60
2023-04-12T22:23:21.021Z,0.50
2023-04-12T22:25:50.958Z,0.68
2023-04-12T22:28:19.498Z,0.60
2023-04-12T22:30:48.465Z,1.00
2023-04-12T22:33:17.043Z,0.90
2023-04-12T22:35:46.266Z,0.77
2023-04-12T22:38:15.718Z,0.60
2023-04-12T22:40:46.169Z,0.73
2023-04-12T22:43:20.803Z,0.70
2023-04-12T22:45:49.514Z,0.60
2023-04-12T22:48:20.316Z,0.52
2023-04-12T22:50:48.803Z,0.60
2023-04-12T22:53:17.321Z,0.43
2023-04-12T22:55:45.879Z,0.63
2023-04-12T22:58:15.486Z,0.60
2023-04-12T23:00:45.499Z,0.50
2023-04-12T23:03:14.532Z,0.70
2023-04-12T23:05:44.876Z,0.57
2023-04-12T23:08:14.849Z,0.70
2023-04-12T23:10:43.491Z,0.60
2023-04-12T23:13:12.561Z,0.50
2023-04-12T23:15:41.490Z,0.50
2023-04-12T23:18:11.517Z,0.60
2023-04-12T23:20:40.595Z,0.70
2023-04-12T23:23:10.010Z,0.77
2023-04-12T23:25:42.163Z,1.00
2023-04-12T23:28:14.218Z,0.90
2023-04-12T23:30:44.338Z,0.68
2023-04-12T23:33:14.505Z,0.90
2023-04-12T23:35:43.732Z,0.85
2023-04-12T23:38:15.671Z,0.93
2023-04-12T23:40:44.460Z,0.85
2023-04-12T23:43:13.038Z,0.65
2023-04-12T23:45:41.636Z,0.47
2023-04-12T23:48:10.193Z,0.60
2023-04-12T23:50:40.300Z,1.13
2023-04-12T23:53:08.839Z,0.80
2023-04-12T23:55:37.421Z,0.85
2023-04-12T23:58:06.115Z,0.50
